Česky Dansk Deutsch English Español Suomi Français Magyar Italiano Nederlands norsk Polski Português svenska Türkçe

 

Het Weer

Afonsos Aeroporto (Brazilië)

10:00, 17 augustus 2016 (GMT)

NWNNE
WE
SWSSE
Home            
Afonsos Aeroporto Rio / Jacarepagua Galeao Rio De Janeiro Aeroporto Rio De Janeiro-Santa Cruz Ab Resende Juiz De Fora S. P. Aldeia Aerodrome Macae Barbacena Guaratingueta Campos Sao Jose Dos Campo Santos Aeroporto Guarulhos Civ / Mil Belo Horizonte Belo Horizonte Aeroporto Marte Civ / Mil Sao Paulo/Congonhas Aeroporto Pocos De Caldas Campinas Aeroporto Pirassununga Vitoria Aeroporto

Om een weerknop op uw website of weblog te plaatsen, copieer onderstaande code en plak die in uw pagina. In het eerste vakje staat HTML-code, in het tweede vakje UBB-code.


Add to Google

Details

Visibility:Greater than 10000 m, 10 km, 32800 ft, 6.2 miles
Clouds:CAVOC
Temperature:16°C, 61°F
Dew-point:15°C, 59°F
Atmospheric pressure:1014 hPa, 760.6 mmHg, 29.94 inHg, 1.001 atm
Relative humidity:93.8 %
METAR:SBAF 171000Z 00000KT CAVOK 16/15 Q1014

Snelkoppelingen

Actuele weersinformatie van de hele wereld. Voeg locaties toe met het plus (+) symbool. Deze snelkoppelingen kunnen worden toegevoegd aan Google.

Lid van de Technetium groep

website free tracking
StatCounter NetStat W3C Validator

24-10-2020 03:19:48
astro.technetium.be money.technetium.be phote.technetium.be tafeltennistafel.technetium.be www.ligfiets.net